sensor_id;sensor_type;location;lat;lon;timestamp;P1;durP1;ratioP1;P2;durP2;ratioP2
6842;SDS011;3460;52.028;8.916;2023-05-01T00:00:47;6.37;;;3.50;;
6842;SDS011;3460;52.028;8.916;2023-05-01T00:03:14;7.33;;;4.10;;
6842;SDS011;3460;52.028;8.916;2023-05-01T00:05:41;8.33;;;4.40;;
6842;SDS011;3460;52.028;8.916;2023-05-01T00:08:08;7.67;;;3.73;;
6842;SDS011;3460;52.028;8.916;2023-05-01T00:10:35;6.27;;;3.77;;
6842;SDS011;3460;52.028;8.916;2023-05-01T00:13:04;6.53;;;4.13;;
6842;SDS011;3460;52.028;8.916;2023-05-01T00:15:31;7.33;;;3.57;;
6842;SDS011;3460;52.028;8.916;2023-05-01T00:17:58;6.83;;;4.00;;
6842;SDS011;3460;52.028;8.916;2023-05-01T00:20:25;5.80;;;3.33;;
6842;SDS011;3460;52.028;8.916;2023-05-01T00:22:52;6.70;;;3.70;;
6842;SDS011;3460;52.028;8.916;2023-05-01T00:25:19;5.83;;;2.97;;
6842;SDS011;3460;52.028;8.916;2023-05-01T00:27:46;6.77;;;3.20;;
6842;SDS011;3460;52.028;8.916;2023-05-01T00:30:14;7.40;;;3.37;;
6842;SDS011;3460;52.028;8.916;2023-05-01T00:32:41;7.73;;;3.40;;
6842;SDS011;3460;52.028;8.916;2023-05-01T00:35:08;6.23;;;3.60;;
6842;SDS011;3460;52.028;8.916;2023-05-01T00:37:36;6.07;;;3.40;;
6842;SDS011;3460;52.028;8.916;2023-05-01T00:40:03;5.30;;;3.17;;
6842;SDS011;3460;52.028;8.916;2023-05-01T00:42:33;8.50;;;3.53;;
6842;SDS011;3460;52.028;8.916;2023-05-01T00:45:01;6.13;;;3.63;;
6842;SDS011;3460;52.028;8.916;2023-05-01T00:47:29;5.50;;;3.93;;
6842;SDS011;3460;52.028;8.916;2023-05-01T00:49:56;9.87;;;3.93;;
6842;SDS011;3460;52.028;8.916;2023-05-01T00:52:23;7.80;;;3.83;;
6842;SDS011;3460;52.028;8.916;2023-05-01T00:54:50;4.77;;;3.40;;
6842;SDS011;3460;52.028;8.916;2023-05-01T00:57:18;8.50;;;3.80;;
6842;SDS011;3460;52.028;8.916;2023-05-01T00:59:45;4.97;;;3.40;;
6842;SDS011;3460;52.028;8.916;2023-05-01T01:02:12;7.57;;;3.23;;
6842;SDS011;3460;52.028;8.916;2023-05-01T01:04:41;7.03;;;3.70;;
6842;SDS011;3460;52.028;8.916;2023-05-01T01:07:10;9.07;;;3.67;;
6842;SDS011;3460;52.028;8.916;2023-05-01T01:09:47;8.27;;;4.23;;
6842;SDS011;3460;52.028;8.916;2023-05-01T01:12:23;7.10;;;3.53;;
6842;SDS011;3460;52.028;8.916;2023-05-01T01:14:57;7.37;;;3.63;;
6842;SDS011;3460;52.028;8.916;2023-05-01T01:17:31;5.53;;;3.70;;
6842;SDS011;3460;52.028;8.916;2023-05-01T01:20:18;5.77;;;3.70;;
6842;SDS011;3460;52.028;8.916;2023-05-01T01:22:57;5.60;;;3.13;;
6842;SDS011;3460;52.028;8.916;2023-05-01T01:28:38;8.20;;;3.70;;
6842;SDS011;3460;52.028;8.916;2023-05-01T01:31:32;8.20;;;3.53;;
6842;SDS011;3460;52.028;8.916;2023-05-01T01:34:11;6.03;;;3.40;;
6842;SDS011;3460;52.028;8.916;2023-05-01T01:36:41;6.30;;;3.77;;
6842;SDS011;3460;52.028;8.916;2023-05-01T01:39:14;6.20;;;3.40;;
6842;SDS011;3460;52.028;8.916;2023-05-01T01:41:50;6.97;;;3.83;;
6842;SDS011;3460;52.028;8.916;2023-05-01T01:44:19;5.63;;;3.57;;
6842;SDS011;3460;52.028;8.916;2023-05-01T01:46:51;6.00;;;3.53;;
6842;SDS011;3460;52.028;8.916;2023-05-01T01:49:22;7.67;;;3.60;;
6842;SDS011;3460;52.028;8.916;2023-05-01T01:51:51;4.80;;;3.50;;
6842;SDS011;3460;52.028;8.916;2023-05-01T01:54:22;4.77;;;3.47;;
6842;SDS011;3460;52.028;8.916;2023-05-01T01:56:54;6.07;;;3.80;;
6842;SDS011;3460;52.028;8.916;2023-05-01T01:59:24;9.27;;;3.27;;
6842;SDS011;3460;52.028;8.916;2023-05-01T02:01:52;6.13;;;3.53;;
6842;SDS011;3460;52.028;8.916;2023-05-01T02:04:22;6.50;;;3.47;;
6842;SDS011;3460;52.028;8.916;2023-05-01T02:06:50;6.20;;;3.80;;
6842;SDS011;3460;52.028;8.916;2023-05-01T02:09:18;6.27;;;3.33;;
6842;SDS011;3460;52.028;8.916;2023-05-01T02:11:47;6.77;;;3.83;;
6842;SDS011;3460;52.028;8.916;2023-05-01T02:14:15;6.83;;;3.57;;
6842;SDS011;3460;52.028;8.916;2023-05-01T02:16:44;5.27;;;3.10;;
6842;SDS011;3460;52.028;8.916;2023-05-01T02:19:11;6.20;;;3.53;;
6842;SDS011;3460;52.028;8.916;2023-05-01T02:21:41;6.77;;;3.80;;
6842;SDS011;3460;52.028;8.916;2023-05-01T02:24:10;8.10;;;4.00;;
6842;SDS011;3460;52.028;8.916;2023-05-01T02:26:40;5.63;;;3.47;;
6842;SDS011;3460;52.028;8.916;2023-05-01T02:29:09;4.93;;;3.47;;
6842;SDS011;3460;52.028;8.916;2023-05-01T02:31:35;5.07;;;3.13;;
6842;SDS011;3460;52.028;8.916;2023-05-01T02:34:02;5.93;;;3.53;;
6842;SDS011;3460;52.028;8.916;2023-05-01T02:36:29;5.03;;;3.37;;
6842;SDS011;3460;52.028;8.916;2023-05-01T02:38:58;5.80;;;3.20;;
6842;SDS011;3460;52.028;8.916;2023-05-01T02:41:25;5.73;;;3.37;;
6842;SDS011;3460;52.028;8.916;2023-05-01T02:43:54;5.33;;;3.17;;
6842;SDS011;3460;52.028;8.916;2023-05-01T02:46:25;5.40;;;4.00;;
6842;SDS011;3460;52.028;8.916;2023-05-01T02:48:53;6.73;;;3.50;;
6842;SDS011;3460;52.028;8.916;2023-05-01T02:51:21;7.00;;;4.17;;
6842;SDS011;3460;52.028;8.916;2023-05-01T02:53:49;8.67;;;4.17;;
6842;SDS011;3460;52.028;8.916;2023-05-01T02:56:17;6.70;;;4.30;;
6842;SDS011;3460;52.028;8.916;2023-05-01T02:58:44;7.50;;;4.33;;
6842;SDS011;3460;52.028;8.916;2023-05-01T03:01:13;10.60;;;4.67;;
6842;SDS011;3460;52.028;8.916;2023-05-01T03:03:40;8.80;;;4.60;;
6842;SDS011;3460;52.028;8.916;2023-05-01T03:06:07;7.70;;;4.30;;
6842;SDS011;3460;52.028;8.916;2023-05-01T03:08:34;7.37;;;4.53;;
6842;SDS011;3460;52.028;8.916;2023-05-01T03:11:03;10.07;;;4.40;;
6842;SDS011;3460;52.028;8.916;2023-05-01T03:13:31;6.57;;;4.10;;
6842;SDS011;3460;52.028;8.916;2023-05-01T03:15:58;7.57;;;4.30;;
6842;SDS011;3460;52.028;8.916;2023-05-01T03:18:26;8.73;;;4.20;;
6842;SDS011;3460;52.028;8.916;2023-05-01T03:20:53;8.23;;;5.00;;
6842;SDS011;3460;52.028;8.916;2023-05-01T03:23:21;8.80;;;5.70;;
6842;SDS011;3460;52.028;8.916;2023-05-01T03:25:48;9.43;;;5.60;;
6842;SDS011;3460;52.028;8.916;2023-05-01T03:28:15;7.73;;;5.20;;
6842;SDS011;3460;52.028;8.916;2023-05-01T03:30:44;9.53;;;5.67;;
6842;SDS011;3460;52.028;8.916;2023-05-01T03:33:10;7.03;;;5.17;;
6842;SDS011;3460;52.028;8.916;2023-05-01T03:35:37;9.07;;;4.93;;
6842;SDS011;3460;52.028;8.916;2023-05-01T03:38:04;6.53;;;4.30;;
6842;SDS011;3460;52.028;8.916;2023-05-01T03:40:32;8.47;;;5.27;;
6842;SDS011;3460;52.028;8.916;2023-05-01T03:42:58;13.00;;;5.17;;
6842;SDS011;3460;52.028;8.916;2023-05-01T03:45:25;7.80;;;4.90;;
6842;SDS011;3460;52.028;8.916;2023-05-01T03:47:53;8.03;;;4.77;;
6842;SDS011;3460;52.028;8.916;2023-05-01T03:50:21;6.07;;;3.80;;
6842;SDS011;3460;52.028;8.916;2023-05-01T03:52:48;8.03;;;4.17;;
6842;SDS011;3460;52.028;8.916;2023-05-01T03:55:14;6.93;;;3.87;;
6842;SDS011;3460;52.028;8.916;2023-05-01T03:57:41;7.93;;;3.73;;
6842;SDS011;3460;52.028;8.916;2023-05-01T04:00:08;13.50;;;3.67;;
6842;SDS011;3460;52.028;8.916;2023-05-01T04:02:36;7.13;;;3.50;;
6842;SDS011;3460;52.028;8.916;2023-05-01T04:05:05;4.90;;;3.10;;
6842;SDS011;3460;52.028;8.916;2023-05-01T04:07:33;6.17;;;3.50;;
6842;SDS011;3460;52.028;8.916;2023-05-01T04:10:00;6.20;;;3.63;;
6842;SDS011;3460;52.028;8.916;2023-05-01T04:12:27;7.93;;;3.77;;
6842;SDS011;3460;52.028;8.916;2023-05-01T04:14:54;6.47;;;3.40;;
6842;SDS011;3460;52.028;8.916;2023-05-01T04:17:21;5.90;;;3.43;;
6842;SDS011;3460;52.028;8.916;2023-05-01T04:19:48;6.67;;;3.23;;
6842;SDS011;3460;52.028;8.916;2023-05-01T04:22:16;6.20;;;3.60;;
6842;SDS011;3460;52.028;8.916;2023-05-01T04:24:43;5.10;;;3.30;;
6842;SDS011;3460;52.028;8.916;2023-05-01T04:27:10;8.93;;;3.40;;
6842;SDS011;3460;52.028;8.916;2023-05-01T04:29:37;10.63;;;3.70;;
6842;SDS011;3460;52.028;8.916;2023-05-01T04:32:05;9.03;;;3.57;;
6842;SDS011;3460;52.028;8.916;2023-05-01T04:34:32;5.83;;;3.43;;
6842;SDS011;3460;52.028;8.916;2023-05-01T04:36:59;10.37;;;3.60;;
6842;SDS011;3460;52.028;8.916;2023-05-01T04:39:29;6.10;;;3.20;;
6842;SDS011;3460;52.028;8.916;2023-05-01T04:41:55;6.63;;;3.27;;
6842;SDS011;3460;52.028;8.916;2023-05-01T04:44:22;5.80;;;3.20;;
6842;SDS011;3460;52.028;8.916;2023-05-01T04:46:49;5.37;;;3.33;;
6842;SDS011;3460;52.028;8.916;2023-05-01T04:49:16;5.43;;;3.43;;
6842;SDS011;3460;52.028;8.916;2023-05-01T04:51:43;7.23;;;3.50;;
6842;SDS011;3460;52.028;8.916;2023-05-01T04:54:10;6.43;;;3.47;;
6842;SDS011;3460;52.028;8.916;2023-05-01T04:56:38;5.27;;;3.33;;
6842;SDS011;3460;52.028;8.916;2023-05-01T04:59:05;6.53;;;3.60;;
6842;SDS011;3460;52.028;8.916;2023-05-01T05:01:32;9.10;;;3.10;;
6842;SDS011;3460;52.028;8.916;2023-05-01T05:03:58;4.77;;;3.57;;
6842;SDS011;3460;52.028;8.916;2023-05-01T05:06:25;5.33;;;3.07;;
6842;SDS011;3460;52.028;8.916;2023-05-01T05:08:52;4.60;;;2.80;;
6842;SDS011;3460;52.028;8.916;2023-05-01T05:11:19;6.80;;;3.60;;
6842;SDS011;3460;52.028;8.916;2023-05-01T05:13:48;5.13;;;3.00;;
6842;SDS011;3460;52.028;8.916;2023-05-01T05:16:14;7.20;;;3.23;;
6842;SDS011;3460;52.028;8.916;2023-05-01T05:18:41;6.47;;;3.23;;
6842;SDS011;3460;52.028;8.916;2023-05-01T05:21:08;5.60;;;3.37;;
6842;SDS011;3460;52.028;8.916;2023-05-01T05:23:35;5.27;;;2.87;;
6842;SDS011;3460;52.028;8.916;2023-05-01T05:26:02;7.47;;;3.20;;
6842;SDS011;3460;52.028;8.916;2023-05-01T05:28:29;9.37;;;3.43;;
6842;SDS011;3460;52.028;8.916;2023-05-01T05:30:58;5.13;;;3.07;;
6842;SDS011;3460;52.028;8.916;2023-05-01T05:33:24;5.00;;;3.27;;
6842;SDS011;3460;52.028;8.916;2023-05-01T05:35:53;10.30;;;3.50;;
6842;SDS011;3460;52.028;8.916;2023-05-01T05:38:19;5.57;;;3.30;;
6842;SDS011;3460;52.028;8.916;2023-05-01T05:40:46;7.20;;;3.40;;
6842;SDS011;3460;52.028;8.916;2023-05-01T05:43:13;7.33;;;3.63;;
6842;SDS011;3460;52.028;8.916;2023-05-01T05:45:40;6.53;;;3.20;;
6842;SDS011;3460;52.028;8.916;2023-05-01T05:48:08;9.20;;;3.90;;
6842;SDS011;3460;52.028;8.916;2023-05-01T05:50:35;9.20;;;3.70;;
6842;SDS011;3460;52.028;8.916;2023-05-01T05:53:01;10.13;;;3.43;;
6842;SDS011;3460;52.028;8.916;2023-05-01T05:55:28;5.20;;;3.20;;
6842;SDS011;3460;52.028;8.916;2023-05-01T05:57:55;6.50;;;3.20;;
6842;SDS011;3460;52.028;8.916;2023-05-01T06:00:22;11.63;;;4.07;;
6842;SDS011;3460;52.028;8.916;2023-05-01T06:02:49;7.57;;;3.47;;
6842;SDS011;3460;52.028;8.916;2023-05-01T06:05:17;7.17;;;3.70;;
6842;SDS011;3460;52.028;8.916;2023-05-01T06:07:44;5.37;;;2.93;;
6842;SDS011;3460;52.028;8.916;2023-05-01T06:10:11;7.00;;;3.40;;
6842;SDS011;3460;52.028;8.916;2023-05-01T06:12:38;7.53;;;2.83;;
6842;SDS011;3460;52.028;8.916;2023-05-01T06:15:05;7.93;;;3.27;;
6842;SDS011;3460;52.028;8.916;2023-05-01T06:17:32;4.73;;;3.10;;
6842;SDS011;3460;52.028;8.916;2023-05-01T06:20:00;6.83;;;3.30;;
6842;SDS011;3460;52.028;8.916;2023-05-01T06:22:31;6.47;;;3.53;;
6842;SDS011;3460;52.028;8.916;2023-05-01T06:24:58;7.43;;;3.43;;
6842;SDS011;3460;52.028;8.916;2023-05-01T06:27:24;7.93;;;3.20;;
6842;SDS011;3460;52.028;8.916;2023-05-01T06:29:51;7.57;;;3.60;;
6842;SDS011;3460;52.028;8.916;2023-05-01T06:32:18;7.30;;;3.33;;
6842;SDS011;3460;52.028;8.916;2023-05-01T06:34:45;6.53;;;3.40;;
6842;SDS011;3460;52.028;8.916;2023-05-01T06:37:12;7.10;;;3.10;;
6842;SDS011;3460;52.028;8.916;2023-05-01T06:39:40;6.13;;;3.30;;
6842;SDS011;3460;52.028;8.916;2023-05-01T06:42:07;6.73;;;3.73;;
6842;SDS011;3460;52.028;8.916;2023-05-01T06:44:39;6.70;;;3.07;;
6842;SDS011;3460;52.028;8.916;2023-05-01T06:47:06;8.53;;;3.33;;
6842;SDS011;3460;52.028;8.916;2023-05-01T06:49:33;6.97;;;3.40;;
6842;SDS011;3460;52.028;8.916;2023-05-01T06:52:00;6.60;;;3.33;;
6842;SDS011;3460;52.028;8.916;2023-05-01T06:54:26;4.73;;;3.40;;
6842;SDS011;3460;52.028;8.916;2023-05-01T06:56:55;6.87;;;3.60;;
6842;SDS011;3460;52.028;8.916;2023-05-01T06:59:21;7.03;;;3.17;;
6842;SDS011;3460;52.028;8.916;2023-05-01T07:01:49;5.97;;;3.27;;
6842;SDS011;3460;52.028;8.916;2023-05-01T07:04:16;6.53;;;3.43;;
6842;SDS011;3460;52.028;8.916;2023-05-01T07:06:42;7.67;;;3.90;;
6842;SDS011;3460;52.028;8.916;2023-05-01T07:09:10;9.47;;;3.90;;
6842;SDS011;3460;52.028;8.916;2023-05-01T07:11:38;7.43;;;3.83;;
6842;SDS011;3460;52.028;8.916;2023-05-01T07:14:07;6.00;;;3.70;;
6842;SDS011;3460;52.028;8.916;2023-05-01T07:16:34;6.33;;;4.20;;
6842;SDS011;3460;52.028;8.916;2023-05-01T07:19:01;10.17;;;4.90;;
6842;SDS011;3460;52.028;8.916;2023-05-01T07:21:28;5.23;;;3.57;;
6842;SDS011;3460;52.028;8.916;2023-05-01T07:23:56;6.97;;;3.60;;
6842;SDS011;3460;52.028;8.916;2023-05-01T07:26:23;10.77;;;4.10;;
6842;SDS011;3460;52.028;8.916;2023-05-01T07:28:52;7.37;;;3.50;;
6842;SDS011;3460;52.028;8.916;2023-05-01T07:31:20;6.60;;;3.63;;
6842;SDS011;3460;52.028;8.916;2023-05-01T07:33:47;6.23;;;3.87;;
6842;SDS011;3460;52.028;8.916;2023-05-01T07:36:14;6.90;;;3.53;;
6842;SDS011;3460;52.028;8.916;2023-05-01T07:38:42;5.23;;;3.47;;
6842;SDS011;3460;52.028;8.916;2023-05-01T07:41:09;8.50;;;3.80;;
6842;SDS011;3460;52.028;8.916;2023-05-01T07:43:36;7.97;;;3.80;;
6842;SDS011;3460;52.028;8.916;2023-05-01T07:46:03;6.47;;;3.53;;
6842;SDS011;3460;52.028;8.916;2023-05-01T07:48:31;6.10;;;3.30;;
6842;SDS011;3460;52.028;8.916;2023-05-01T07:51:00;9.13;;;3.70;;
6842;SDS011;3460;52.028;8.916;2023-05-01T07:53:28;6.53;;;3.40;;
6842;SDS011;3460;52.028;8.916;2023-05-01T07:56:03;6.07;;;3.60;;
6842;SDS011;3460;52.028;8.916;2023-05-01T07:58:30;5.57;;;3.30;;
6842;SDS011;3460;52.028;8.916;2023-05-01T08:00:57;8.53;;;3.30;;
6842;SDS011;3460;52.028;8.916;2023-05-01T08:03:23;7.93;;;4.10;;
6842;SDS011;3460;52.028;8.916;2023-05-01T08:05:53;6.00;;;3.27;;
6842;SDS011;3460;52.028;8.916;2023-05-01T08:08:20;6.03;;;3.90;;
6842;SDS011;3460;52.028;8.916;2023-05-01T08:10:47;5.23;;;3.50;;
6842;SDS011;3460;52.028;8.916;2023-05-01T08:13:14;5.93;;;3.43;;
6842;SDS011;3460;52.028;8.916;2023-05-01T08:15:41;6.70;;;3.50;;
6842;SDS011;3460;52.028;8.916;2023-05-01T08:18:08;7.63;;;3.63;;
6842;SDS011;3460;52.028;8.916;2023-05-01T08:20:35;5.97;;;3.60;;
6842;SDS011;3460;52.028;8.916;2023-05-01T08:23:03;7.10;;;3.93;;
6842;SDS011;3460;52.028;8.916;2023-05-01T08:25:30;12.40;;;4.13;;
6842;SDS011;3460;52.028;8.916;2023-05-01T08:27:57;7.53;;;3.60;;
6842;SDS011;3460;52.028;8.916;2023-05-01T08:30:23;5.10;;;3.40;;
6842;SDS011;3460;52.028;8.916;2023-05-01T08:32:50;5.97;;;3.70;;
6842;SDS011;3460;52.028;8.916;2023-05-01T08:35:17;6.33;;;3.40;;
6842;SDS011;3460;52.028;8.916;2023-05-01T08:37:44;7.70;;;3.43;;
6842;SDS011;3460;52.028;8.916;2023-05-01T08:40:13;5.67;;;3.57;;
6842;SDS011;3460;52.028;8.916;2023-05-01T08:42:40;4.77;;;3.33;;
6842;SDS011;3460;52.028;8.916;2023-05-01T08:45:07;6.10;;;3.53;;
6842;SDS011;3460;52.028;8.916;2023-05-01T08:47:36;7.33;;;4.07;;
6842;SDS011;3460;52.028;8.916;2023-05-01T08:50:05;8.13;;;3.77;;
6842;SDS011;3460;52.028;8.916;2023-05-01T08:52:35;7.63;;;3.40;;
6842;SDS011;3460;52.028;8.916;2023-05-01T08:55:06;7.40;;;3.37;;
6842;SDS011;3460;52.028;8.916;2023-05-01T08:57:38;5.57;;;3.50;;
6842;SDS011;3460;52.028;8.916;2023-05-01T09:00:09;7.20;;;3.37;;
6842;SDS011;3460;52.028;8.916;2023-05-01T09:02:42;6.80;;;4.10;;
6842;SDS011;3460;52.028;8.916;2023-05-01T09:05:11;5.27;;;3.00;;
6842;SDS011;3460;52.028;8.916;2023-05-01T09:07:38;4.77;;;3.27;;
6842;SDS011;3460;52.028;8.916;2023-05-01T09:10:07;5.63;;;3.23;;
6842;SDS011;3460;52.028;8.916;2023-05-01T09:12:35;6.07;;;3.53;;
6842;SDS011;3460;52.028;8.916;2023-05-01T09:15:04;8.23;;;3.60;;
6842;SDS011;3460;52.028;8.916;2023-05-01T09:17:32;8.43;;;3.90;;
6842;SDS011;3460;52.028;8.916;2023-05-01T09:20:00;5.13;;;3.57;;
6842;SDS011;3460;52.028;8.916;2023-05-01T09:22:30;8.90;;;3.70;;
6842;SDS011;3460;52.028;8.916;2023-05-01T09:24:57;5.00;;;3.17;;
6842;SDS011;3460;52.028;8.916;2023-05-01T09:27:24;9.23;;;3.90;;
6842;SDS011;3460;52.028;8.916;2023-05-01T09:29:52;6.43;;;3.37;;
6842;SDS011;3460;52.028;8.916;2023-05-01T09:32:21;7.37;;;3.83;;
6842;SDS011;3460;52.028;8.916;2023-05-01T09:34:51;7.63;;;3.50;;
6842;SDS011;3460;52.028;8.916;2023-05-01T09:37:25;6.40;;;3.40;;
6842;SDS011;3460;52.028;8.916;2023-05-01T09:40:00;4.63;;;3.20;;
6842;SDS011;3460;52.028;8.916;2023-05-01T09:42:31;8.47;;;3.70;;
6842;SDS011;3460;52.028;8.916;2023-05-01T09:44:59;5.50;;;3.83;;
6842;SDS011;3460;52.028;8.916;2023-05-01T09:47:28;6.33;;;3.60;;
6842;SDS011;3460;52.028;8.916;2023-05-01T09:49:55;6.83;;;3.00;;
6842;SDS011;3460;52.028;8.916;2023-05-01T09:52:24;5.80;;;2.80;;
6842;SDS011;3460;52.028;8.916;2023-05-01T09:55:10;5.87;;;3.43;;
6842;SDS011;3460;52.028;8.916;2023-05-01T09:57:38;6.63;;;3.13;;
6842;SDS011;3460;52.028;8.916;2023-05-01T10:00:07;5.93;;;3.33;;
6842;SDS011;3460;52.028;8.916;2023-05-01T10:02:37;3.90;;;2.87;;
6842;SDS011;3460;52.028;8.916;2023-05-01T10:05:05;4.13;;;2.97;;
6842;SDS011;3460;52.028;8.916;2023-05-01T10:07:32;3.93;;;2.93;;
6842;SDS011;3460;52.028;8.916;2023-05-01T10:10:13;5.17;;;3.00;;
6842;SDS011;3460;52.028;8.916;2023-05-01T10:12:41;4.70;;;3.20;;
6842;SDS011;3460;52.028;8.916;2023-05-01T10:15:08;5.57;;;2.90;;
6842;SDS011;3460;52.028;8.916;2023-05-01T10:17:35;3.80;;;2.50;;
6842;SDS011;3460;52.028;8.916;2023-05-01T10:20:05;7.90;;;2.97;;
6842;SDS011;3460;52.028;8.916;2023-05-01T10:22:33;3.53;;;2.10;;
6842;SDS011;3460;52.028;8.916;2023-05-01T10:25:00;3.03;;;1.93;;
6842;SDS011;3460;52.028;8.916;2023-05-01T10:27:29;3.80;;;2.10;;
6842;SDS011;3460;52.028;8.916;2023-05-01T10:29:57;5.13;;;1.70;;
6842;SDS011;3460;52.028;8.916;2023-05-01T10:32:29;3.73;;;1.70;;
6842;SDS011;3460;52.028;8.916;2023-05-01T10:34:59;3.63;;;1.87;;
6842;SDS011;3460;52.028;8.916;2023-05-01T10:37:31;3.75;;;1.70;;
6842;SDS011;3460;52.028;8.916;2023-05-01T10:43:12;2.42;;;1.40;;
6842;SDS011;3460;52.028;8.916;2023-05-01T10:45:39;2.42;;;1.60;;
6842;SDS011;3460;52.028;8.916;2023-05-01T10:48:06;3.70;;;1.60;;
6842;SDS011;3460;52.028;8.916;2023-05-01T10:50:35;2.80;;;1.50;;
6842;SDS011;3460;52.028;8.916;2023-05-01T10:53:34;3.35;;;1.55;;
6842;SDS011;3460;52.028;8.916;2023-05-01T10:56:02;3.08;;;1.50;;
6842;SDS011;3460;52.028;8.916;2023-05-01T11:01:28;3.80;;;1.58;;
6842;SDS011;3460;52.028;8.916;2023-05-01T11:03:56;3.65;;;1.70;;
6842;SDS011;3460;52.028;8.916;2023-05-01T11:06:25;3.50;;;1.67;;
6842;SDS011;3460;52.028;8.916;2023-05-01T11:08:53;3.53;;;1.60;;
6842;SDS011;3460;52.028;8.916;2023-05-01T11:14:13;2.37;;;1.10;;
6842;SDS011;3460;52.028;8.916;2023-05-01T11:16:43;2.80;;;1.27;;
6842;SDS011;3460;52.028;8.916;2023-05-01T11:22:17;1.70;;;1.10;;
6842;SDS011;3460;52.028;8.916;2023-05-01T11:24:44;2.30;;;0.80;;
6842;SDS011;3460;52.028;8.916;2023-05-01T11:27:12;2.25;;;1.08;;
6842;SDS011;3460;52.028;8.916;2023-05-01T11:29:39;1.77;;;1.00;;
6842;SDS011;3460;52.028;8.916;2023-05-01T11:32:09;1.67;;;0.95;;
6842;SDS011;3460;52.028;8.916;2023-05-01T11:34:43;2.00;;;0.98;;
6842;SDS011;3460;52.028;8.916;2023-05-01T11:37:11;1.83;;;0.90;;
6842;SDS011;3460;52.028;8.916;2023-05-01T11:39:46;4.82;;;0.80;;
6842;SDS011;3460;52.028;8.916;2023-05-01T11:42:19;2.00;;;1.00;;
6842;SDS011;3460;52.028;8.916;2023-05-01T11:45:06;1.95;;;1.10;;
6842;SDS011;3460;52.028;8.916;2023-05-01T11:47:34;1.52;;;0.90;;
6842;SDS011;3460;52.028;8.916;2023-05-01T11:50:01;1.80;;;0.90;;
6842;SDS011;3460;52.028;8.916;2023-05-01T11:52:28;0.90;;;0.80;;
6842;SDS011;3460;52.028;8.916;2023-05-01T11:54:57;2.25;;;0.80;;
6842;SDS011;3460;52.028;8.916;2023-05-01T11:57:23;0.80;;;0.70;;
6842;SDS011;3460;52.028;8.916;2023-05-01T11:59:51;1.08;;;0.75;;
6842;SDS011;3460;52.028;8.916;2023-05-01T12:02:18;1.83;;;1.00;;
6842;SDS011;3460;52.028;8.916;2023-05-01T12:04:45;1.63;;;1.00;;
6842;SDS011;3460;52.028;8.916;2023-05-01T12:07:19;1.48;;;1.10;;
6842;SDS011;3460;52.028;8.916;2023-05-01T12:09:46;2.05;;;1.10;;
6842;SDS011;3460;52.028;8.916;2023-05-01T12:12:15;1.80;;;0.90;;
6842;SDS011;3460;52.028;8.916;2023-05-01T12:14:42;1.58;;;1.00;;
6842;SDS011;3460;52.028;8.916;2023-05-01T12:17:09;2.33;;;1.10;;
6842;SDS011;3460;52.028;8.916;2023-05-01T12:19:44;3.20;;;0.80;;
6842;SDS011;3460;52.028;8.916;2023-05-01T12:22:13;1.42;;;0.90;;
6842;SDS011;3460;52.028;8.916;2023-05-01T12:24:47;2.80;;;0.90;;
6842;SDS011;3460;52.028;8.916;2023-05-01T12:27:17;1.02;;;0.88;;
6842;SDS011;3460;52.028;8.916;2023-05-01T12:29:44;1.55;;;1.00;;
6842;SDS011;3460;52.028;8.916;2023-05-01T12:32:12;1.55;;;1.00;;
6842;SDS011;3460;52.028;8.916;2023-05-01T12:34:41;2.22;;;0.93;;
6842;SDS011;3460;52.028;8.916;2023-05-01T12:37:08;1.50;;;0.93;;
6842;SDS011;3460;52.028;8.916;2023-05-01T12:39:35;2.13;;;1.00;;
6842;SDS011;3460;52.028;8.916;2023-05-01T12:42:03;1.75;;;0.80;;
6842;SDS011;3460;52.028;8.916;2023-05-01T12:44:39;2.40;;;0.90;;
6842;SDS011;3460;52.028;8.916;2023-05-01T12:47:07;2.22;;;1.00;;
6842;SDS011;3460;52.028;8.916;2023-05-01T12:49:35;1.65;;;1.00;;
6842;SDS011;3460;52.028;8.916;2023-05-01T12:52:03;2.35;;;1.20;;
6842;SDS011;3460;52.028;8.916;2023-05-01T12:54:32;1.73;;;1.30;;
6842;SDS011;3460;52.028;8.916;2023-05-01T12:57:05;2.13;;;1.05;;
6842;SDS011;3460;52.028;8.916;2023-05-01T12:59:33;2.00;;;1.10;;
6842;SDS011;3460;52.028;8.916;2023-05-01T13:02:03;1.52;;;1.05;;
6842;SDS011;3460;52.028;8.916;2023-05-01T13:04:31;1.98;;;1.08;;
6842;SDS011;3460;52.028;8.916;2023-05-01T13:06:59;2.10;;;1.30;;
6842;SDS011;3460;52.028;8.916;2023-05-01T13:09:26;2.60;;;1.00;;
6842;SDS011;3460;52.028;8.916;2023-05-01T13:11:55;1.85;;;1.30;;
6842;SDS011;3460;52.028;8.916;2023-05-01T13:14:23;2.58;;;1.25;;
6842;SDS011;3460;52.028;8.916;2023-05-01T13:16:50;2.38;;;1.35;;
6842;SDS011;3460;52.028;8.916;2023-05-01T13:19:24;2.15;;;1.10;;
6842;SDS011;3460;52.028;8.916;2023-05-01T13:21:52;2.63;;;1.05;;
6842;SDS011;3460;52.028;8.916;2023-05-01T13:24:20;3.25;;;0.90;;
6842;SDS011;3460;52.028;8.916;2023-05-01T13:26:47;1.75;;;1.30;;
6842;SDS011;3460;52.028;8.916;2023-05-01T13:29:25;2.25;;;1.00;;
6842;SDS011;3460;52.028;8.916;2023-05-01T13:31:52;3.55;;;1.30;;
6842;SDS011;3460;52.028;8.916;2023-05-01T13:34:20;1.77;;;0.93;;
6842;SDS011;3460;52.028;8.916;2023-05-01T13:36:53;2.50;;;1.00;;
6842;SDS011;3460;52.028;8.916;2023-05-01T13:39:20;3.13;;;1.10;;
6842;SDS011;3460;52.028;8.916;2023-05-01T13:41:47;1.75;;;1.10;;
6842;SDS011;3460;52.028;8.916;2023-05-01T13:44:15;1.98;;;1.10;;
6842;SDS011;3460;52.028;8.916;2023-05-01T13:46:42;1.40;;;1.10;;
6842;SDS011;3460;52.028;8.916;2023-05-01T13:49:09;1.05;;;0.82;;
6842;SDS011;3460;52.028;8.916;2023-05-01T13:51:39;0.98;;;0.80;;
6842;SDS011;3460;52.028;8.916;2023-05-01T13:54:08;1.73;;;1.00;;
6842;SDS011;3460;52.028;8.916;2023-05-01T13:56:37;1.30;;;0.90;;
6842;SDS011;3460;52.028;8.916;2023-05-01T13:59:05;1.67;;;0.80;;
6842;SDS011;3460;52.028;8.916;2023-05-01T14:01:35;2.35;;;1.20;;
6842;SDS011;3460;52.028;8.916;2023-05-01T14:04:07;1.40;;;1.00;;
6842;SDS011;3460;52.028;8.916;2023-05-01T14:06:35;2.90;;;1.10;;
6842;SDS011;3460;52.028;8.916;2023-05-01T14:09:07;1.58;;;1.10;;
6842;SDS011;3460;52.028;8.916;2023-05-01T14:11:35;2.17;;;1.13;;
6842;SDS011;3460;52.028;8.916;2023-05-01T14:14:10;1.17;;;0.85;;
6842;SDS011;3460;52.028;8.916;2023-05-01T14:16:37;1.58;;;0.98;;
6842;SDS011;3460;52.028;8.916;2023-05-01T14:19:06;1.13;;;0.85;;
6842;SDS011;3460;52.028;8.916;2023-05-01T14:21:37;2.65;;;1.20;;
6842;SDS011;3460;52.028;8.916;2023-05-01T14:24:07;1.38;;;0.88;;
6842;SDS011;3460;52.028;8.916;2023-05-01T14:26:35;1.52;;;0.80;;
6842;SDS011;3460;52.028;8.916;2023-05-01T14:29:05;2.50;;;1.30;;
6842;SDS011;3460;52.028;8.916;2023-05-01T14:31:32;2.63;;;1.50;;
6842;SDS011;3460;52.028;8.916;2023-05-01T14:34:01;2.03;;;1.13;;
6842;SDS011;3460;52.028;8.916;2023-05-01T14:36:31;1.88;;;1.23;;
6842;SDS011;3460;52.028;8.916;2023-05-01T14:38:58;2.38;;;1.23;;
6842;SDS011;3460;52.028;8.916;2023-05-01T14:41:27;2.95;;;1.50;;
6842;SDS011;3460;52.028;8.916;2023-05-01T14:43:55;1.92;;;1.27;;
6842;SDS011;3460;52.028;8.916;2023-05-01T14:46:26;1.50;;;1.10;;
6842;SDS011;3460;52.028;8.916;2023-05-01T14:48:55;4.70;;;1.38;;
6842;SDS011;3460;52.028;8.916;2023-05-01T14:51:22;1.67;;;1.30;;
6842;SDS011;3460;52.028;8.916;2023-05-01T14:53:49;6.20;;;1.30;;
6842;SDS011;3460;52.028;8.916;2023-05-01T14:56:16;1.63;;;1.15;;
6842;SDS011;3460;52.028;8.916;2023-05-01T14:58:45;1.98;;;1.10;;
6842;SDS011;3460;52.028;8.916;2023-05-01T15:01:12;6.32;;;3.90;;
6842;SDS011;3460;52.028;8.916;2023-05-01T15:03:39;4.35;;;1.35;;
6842;SDS011;3460;52.028;8.916;2023-05-01T15:06:07;2.22;;;1.08;;
6842;SDS011;3460;52.028;8.916;2023-05-01T15:08:35;2.85;;;1.00;;
6842;SDS011;3460;52.028;8.916;2023-05-01T15:11:02;2.10;;;1.13;;
6842;SDS011;3460;52.028;8.916;2023-05-01T15:13:29;2.53;;;1.00;;
6842;SDS011;3460;52.028;8.916;2023-05-01T15:15:58;2.03;;;1.00;;
6842;SDS011;3460;52.028;8.916;2023-05-01T15:18:24;1.50;;;1.10;;
6842;SDS011;3460;52.028;8.916;2023-05-01T15:20:51;1.55;;;1.15;;
6842;SDS011;3460;52.028;8.916;2023-05-01T15:23:18;1.90;;;1.13;;
6842;SDS011;3460;52.028;8.916;2023-05-01T15:25:45;1.27;;;1.00;;
6842;SDS011;3460;52.028;8.916;2023-05-01T15:28:14;1.83;;;1.10;;
6842;SDS011;3460;52.028;8.916;2023-05-01T15:30:42;5.03;;;3.85;;
6842;SDS011;3460;52.028;8.916;2023-05-01T15:33:12;2.65;;;1.38;;
6842;SDS011;3460;52.028;8.916;2023-05-01T15:35:39;2.78;;;0.98;;
6842;SDS011;3460;52.028;8.916;2023-05-01T15:38:06;1.52;;;1.10;;